Time;durP1;ratioP1;P1;durP2;ratioP2;P2;SDS_P1;SDS_P2;PMS_P1;PMS_P2;Temp;Humidity;BMP_temperature;BMP_pressure;BME280_temperature;BME280_humidity;BME280_pressure;Samples;Min_cycle;Max_cycle;Signal;HPM_P1;HPM_P2
2024/01/03 00:00:27;;;;;;;;;;;4.30;99.90;;;;;;4954345;28;20061;-59
2024/01/03 00:02:57;;;;;;;7.97;3.40;;;4.30;99.90;;;;;;4973828;28;20346;-59
2024/01/03 00:05:44;;;;;;;10.13;3.75;;;4.30;99.90;;;;;;4965450;28;20046;-58
2024/01/03 00:08:20;;;;;;;8.30;3.30;;;4.40;99.90;;;;;;4965280;28;20094;-59
2024/01/03 00:10:53;;;;;;;6.57;2.80;;;4.40;99.90;;;;;;4965666;28;20125;-60
2024/01/03 00:13:29;;;;;;;4.85;2.28;;;4.50;99.90;;;;;;4973030;28;20050;-58
2024/01/03 00:15:59;;;;;;;6.38;2.78;;;4.50;99.90;;;;;;4970890;28;20039;-58
2024/01/03 00:18:51;;;;;;;4.28;1.90;;;4.50;99.90;;;;;;4961973;28;20050;-59
2024/01/03 00:21:25;;;;;;;6.10;2.42;;;4.50;99.90;;;;;;4969689;28;20047;-59
2024/01/03 00:23:55;;;;;;;4.45;2.35;;;4.50;99.90;;;;;;4960643;28;20046;-60
2024/01/03 00:26:24;;;;;;;4.68;1.63;;;4.60;99.90;;;;;;4970774;28;20038;-59
2024/01/03 00:28:51;;;;;;;4.38;1.60;;;4.50;99.90;;;;;;4954307;28;20039;-59
2024/01/03 00:31:27;;;;;;;;;;;4.50;99.90;;;;;;4951067;28;20049;-59
2024/01/03 00:33:55;;;;;;;4.05;1.55;;;4.60;99.90;;;;;;4967253;28;20025;-59
2024/01/03 00:36:23;;;;;;;5.10;1.83;;;4.70;99.90;;;;;;4931977;28;20518;-59
2024/01/03 00:38:50;;;;;;;3.00;1.88;;;4.70;99.90;;;;;;4952152;28;20047;-60
2024/01/03 00:41:17;;;;;;;4.97;1.70;;;4.70;99.90;;;;;;4959863;28;20042;-58
2024/01/03 00:43:43;;;;;;;3.33;1.85;;;4.70;99.90;;;;;;4966455;28;20455;-59
2024/01/03 00:46:11;;;;;;;5.60;2.20;;;4.70;99.90;;;;;;4963348;28;20555;-58
2024/01/03 00:48:40;;;;;;;4.50;1.70;;;4.70;99.90;;;;;;4947292;28;20067;-60
2024/01/03 00:51:08;;;;;;;3.55;1.33;;;4.80;99.90;;;;;;4954536;28;20050;-60
2024/01/03 00:53:36;;;;;;;3.08;1.52;;;4.80;99.90;;;;;;4951791;28;20133;-58
2024/01/03 00:56:03;;;;;;;;;;;4.90;99.90;;;;;;4968584;28;20039;-59
2024/01/03 00:58:30;;;;;;;3.05;1.63;;;4.90;99.90;;;;;;4947664;28;20378;-60
2024/01/03 01:00:57;;;;;;;4.00;1.48;;;5.00;99.90;;;;;;4954221;28;20039;-60
2024/01/03 01:03:24;;;;;;;3.38;1.67;;;4.90;99.90;;;;;;4952388;28;20467;-59
2024/01/03 01:05:51;;;;;;;4.30;2.25;;;4.90;99.90;;;;;;4965214;28;20031;-60
2024/01/03 01:08:18;;;;;;;5.95;2.03;;;4.90;99.90;;;;;;4947199;28;20484;-60
2024/01/03 01:10:46;;;;;;;3.15;1.77;;;4.80;99.90;;;;;;4949622;28;20054;-59
2024/01/03 01:13:13;;;;;;;4.43;2.50;;;4.80;99.90;;;;;;4945472;28;20516;-59
2024/01/03 01:15:40;;;;;;;2.63;1.63;;;4.80;99.90;;;;;;4964182;28;20035;-59
2024/01/03 01:18:07;;;;;;;5.97;2.13;;;4.90;99.90;;;;;;4952033;28;20130;-60
2024/01/03 01:20:34;;;;;;;;;;;4.80;99.90;;;;;;4971550;28;20040;-59
2024/01/03 01:23:01;;;;;;;8.20;1.90;;;4.80;99.90;;;;;;4954626;28;20020;-60
2024/01/03 01:25:28;;;;;;;3.65;1.55;;;4.90;99.90;;;;;;4943545;28;20540;-59
2024/01/03 01:27:55;;;;;;;3.67;1.08;;;4.90;99.90;;;;;;4949282;28;20046;-58
2024/01/03 01:30:22;;;;;;;4.07;1.20;;;5.00;99.90;;;;;;4946580;28;20523;-59
2024/01/03 01:32:50;;;;;;;5.13;1.60;;;5.00;99.90;;;;;;4966982;28;20070;-59
2024/01/03 01:35:17;;;;;;;3.17;1.20;;;5.10;99.90;;;;;;4954386;28;20047;-58
2024/01/03 01:37:44;;;;;;;;;;;5.10;99.90;;;;;;4961983;28;20145;-58
2024/01/03 01:40:11;;;;;;;2.90;1.92;;;5.00;99.90;;;;;;4960782;28;19929;-57
2024/01/03 01:42:43;;;;;;;3.25;2.22;;;4.80;99.90;;;;;;4955263;28;20031;-59
2024/01/03 01:45:10;;;;;;;4.63;2.65;;;4.80;99.90;;;;;;4943092;28;20149;-59
2024/01/03 01:47:39;;;;;;;5.55;2.45;;;4.70;99.90;;;;;;4954506;28;20047;-59
2024/01/03 01:50:08;;;;;;;6.78;2.53;;;4.60;99.90;;;;;;4970378;28;20043;-58
2024/01/03 01:52:35;;;;;;;4.40;2.20;;;4.60;99.90;;;;;;4954359;28;20129;-57
2024/01/03 01:55:02;;;;;;;4.20;1.73;;;4.60;99.90;;;;;;4947733;28;20069;-60
2024/01/03 01:57:31;;;;;;;3.90;1.88;;;4.50;99.90;;;;;;4971870;28;20160;-57
2024/01/03 01:59:59;;;;;;;3.47;1.00;;;4.60;99.90;;;;;;4954311;28;20070;-59
2024/01/03 02:02:26;;;;;;;3.83;1.40;;;4.60;99.90;;;;;;4938093;28;20051;-59
2024/01/03 02:04:53;;;;;;;1.58;0.90;;;4.70;99.90;;;;;;4941076;28;20109;-60
2024/01/03 02:07:22;;;;;;;1.27;0.90;;;4.80;99.90;;;;;;4971570;28;20515;-59
2024/01/03 02:09:49;;;;;;;3.38;0.90;;;4.80;99.90;;;;;;4944383;29;20054;-59
2024/01/03 02:12:16;;;;;;;2.55;1.20;;;4.80;99.90;;;;;;4950348;28;20047;-59
2024/01/03 02:14:42;;;;;;;4.10;1.60;;;4.80;99.90;;;;;;4954520;28;20432;-58
2024/01/03 02:17:10;;;;;;;4.05;2.30;;;4.70;99.90;;;;;;4954984;28;20061;-58
2024/01/03 02:19:36;;;;;;;2.80;1.92;;;4.60;99.90;;;;;;4974009;28;20403;-59
2024/01/03 02:22:03;;;;;;;8.30;2.72;;;4.50;99.90;;;;;;4971718;28;20105;-58
2024/01/03 02:24:30;;;;;;;5.95;2.10;;;4.40;99.90;;;;;;4964195;28;20071;-59
2024/01/03 02:26:57;;;;;;;5.05;2.67;;;4.30;99.90;;;;;;4962707;28;20043;-58
2024/01/03 02:29:24;;;;;;;3.35;2.28;;;4.20;99.90;;;;;;4949998;28;20555;-59
2024/01/03 02:31:51;;;;;;;5.25;2.63;;;4.20;99.90;;;;;;4972994;28;20043;-58
2024/01/03 02:34:20;;;;;;;3.58;2.25;;;4.10;99.90;;;;;;4958165;28;20046;-60
2024/01/03 02:36:51;;;;;;;4.75;2.35;;;4.10;99.90;;;;;;4959282;28;20733;-58
2024/01/03 02:39:18;;;;;;;2.50;1.33;;;4.20;99.90;;;;;;4967158;28;20070;-58
2024/01/03 02:41:45;;;;;;;2.88;1.50;;;4.20;99.90;;;;;;4975352;28;20039;-58
2024/01/03 02:44:12;;;;;;;4.05;1.92;;;4.40;99.90;;;;;;4974175;28;20086;-58
2024/01/03 02:46:38;;;;;;;2.70;1.80;;;4.40;99.90;;;;;;4975276;28;20050;-59
2024/01/03 02:49:05;;;;;;;3.95;1.90;;;4.40;99.90;;;;;;4974654;28;20050;-59
2024/01/03 02:51:32;;;;;;;3.92;1.90;;;4.40;99.90;;;;;;4973744;28;20039;-59
2024/01/03 02:53:59;;;;;;;8.02;1.55;;;4.40;99.90;;;;;;4955260;28;20505;-59
2024/01/03 02:56:26;;;;;;;1.88;1.10;;;4.40;99.90;;;;;;4973015;28;20047;-59
2024/01/03 02:58:52;;;;;;;2.78;1.20;;;4.40;99.90;;;;;;4969924;28;20838;-58
2024/01/03 03:01:19;;;;;;;3.13;1.13;;;4.50;99.90;;;;;;4956810;28;20055;-60
2024/01/03 03:03:46;;;;;;;2.65;1.40;;;4.50;99.90;;;;;;4966495;28;20046;-59
2024/01/03 03:06:13;;;;;;;2.95;1.25;;;4.50;99.90;;;;;;4966178;28;20039;-58
2024/01/03 03:08:40;;;;;;;4.15;1.35;;;4.50;99.90;;;;;;4969099;28;20043;-60
2024/01/03 03:11:07;;;;;;;7.63;2.33;;;4.50;99.90;;;;;;4958613;28;20048;-58
2024/01/03 03:13:34;;;;;;;2.75;1.63;;;4.40;99.90;;;;;;4972349;28;20058;-59
2024/01/03 03:16:01;;;;;;;4.60;2.13;;;4.20;99.90;;;;;;4974509;28;20035;-58
2024/01/03 03:18:28;;;;;;;3.08;2.25;;;4.00;99.90;;;;;;4965659;28;20039;-58
2024/01/03 03:20:55;;;;;;;5.47;2.00;;;3.90;99.90;;;;;;4967071;28;20074;-59
2024/01/03 03:23:22;;;;;;;3.08;2.10;;;3.80;99.90;;;;;;4974257;28;20488;-60
2024/01/03 03:25:48;;;;;;;2.63;1.83;;;3.90;99.90;;;;;;4961467;28;20512;-60
2024/01/03 03:28:18;;;;;;;4.03;2.10;;;3.90;99.90;;;;;;4967340;28;20057;-58
2024/01/03 03:30:44;;;;;;;4.55;2.58;;;3.90;99.90;;;;;;4962614;28;20047;-59
2024/01/03 03:33:11;;;;;;;4.43;2.58;;;3.90;99.90;;;;;;4968037;28;20057;-58
2024/01/03 03:35:38;;;;;;;4.22;2.33;;;3.90;99.90;;;;;;4973580;28;20070;-59
2024/01/03 03:38:05;;;;;;;4.30;2.28;;;3.90;99.90;;;;;;4959151;28;20043;-58
2024/01/03 03:40:32;;;;;;;3.17;2.00;;;4.00;99.90;;;;;;4967526;28;20045;-60
2024/01/03 03:42:59;;;;;;;5.97;2.30;;;3.90;99.90;;;;;;4967229;28;20566;-60
2024/01/03 03:45:26;;;;;;;6.20;2.15;;;4.00;99.90;;;;;;4964769;28;20051;-60
2024/01/03 03:47:53;;;;;;;5.68;2.33;;;4.00;99.90;;;;;;4956305;28;20044;-58
2024/01/03 03:50:20;;;;;;;3.75;1.80;;;4.00;99.90;;;;;;4962730;28;20125;-57
2024/01/03 03:52:47;;;;;;;4.97;2.28;;;4.00;99.90;;;;;;4958193;28;20049;-59
2024/01/03 03:55:15;;;;;;;3.97;2.20;;;4.00;99.90;;;;;;4973795;28;20101;-59
2024/01/03 03:57:41;;;;;;;2.53;1.77;;;3.90;99.90;;;;;;4964768;28;20474;-59
2024/01/03 04:00:09;;;;;;;5.53;2.50;;;3.90;99.90;;;;;;4973844;28;20097;-59
2024/01/03 04:02:38;;;;;;;2.67;1.75;;;3.80;99.90;;;;;;4973607;28;20073;-60
2024/01/03 04:05:06;;;;;;;4.13;2.40;;;3.70;99.90;;;;;;4964170;28;20039;-59
2024/01/03 04:07:32;;;;;;;;;;;3.70;99.90;;;;;;4970590;28;20046;-58
2024/01/03 04:10:00;;;;;;;3.92;1.95;;;3.70;99.90;;;;;;4961316;28;20287;-59
2024/01/03 04:12:27;;;;;;;;;;;3.70;99.90;;;;;;4966030;28;20053;-59
2024/01/03 04:14:53;;;;;;;3.08;2.10;;;3.70;99.90;;;;;;4964118;28;19929;-58
2024/01/03 04:17:22;;;;;;;3.22;1.88;;;3.60;99.90;;;;;;4973523;28;20042;-60
2024/01/03 04:19:49;;;;;;;3.72;1.90;;;3.60;99.90;;;;;;4965362;28;20034;-60
2024/01/03 04:22:16;;;;;;;3.70;1.98;;;3.60;99.90;;;;;;4973230;28;20492;-59
2024/01/03 04:24:43;;;;;;;2.53;1.52;;;3.60;99.90;;;;;;4973042;28;20050;-59
2024/01/03 04:27:10;;;;;;;2.70;1.80;;;3.70;99.90;;;;;;4973639;28;20063;-60
2024/01/03 04:29:37;;;;;;;;;;;3.70;99.90;;;;;;4970521;28;20046;-59
2024/01/03 04:32:07;;;;;;;3.70;1.85;;;3.70;99.90;;;;;;4966851;28;19922;-60
2024/01/03 04:34:36;;;;;;;2.55;1.65;;;3.70;99.90;;;;;;4972597;28;20046;-57
2024/01/03 04:37:03;;;;;;;2.10;1.60;;;3.60;99.90;;;;;;4971419;28;20499;-58
2024/01/03 04:39:30;;;;;;;;;;;3.70;99.90;;;;;;4971578;28;20526;-58
2024/01/03 04:41:57;;;;;;;2.58;1.50;;;3.70;99.90;;;;;;4967896;28;19927;-60
2024/01/03 04:44:24;;;;;;;2.90;1.35;;;3.80;99.90;;;;;;4968650;28;20051;-58
2024/01/03 04:46:51;;;;;;;2.42;1.10;;;3.90;99.90;;;;;;4972622;28;20471;-58
2024/01/03 04:49:17;;;;;;;2.15;1.20;;;3.90;99.90;;;;;;4965403;28;20054;-59
2024/01/03 04:51:44;;;;;;;3.17;2.00;;;3.80;99.90;;;;;;4973032;28;20043;-60
2024/01/03 04:54:11;;;;;;;0.82;0.65;;;3.80;99.90;;;;;;4973049;28;20043;-59
2024/01/03 04:56:38;;;;;;;3.38;2.08;;;3.80;99.90;;;;;;4970843;28;20045;-56
2024/01/03 04:59:05;;;;;;;1.92;1.42;;;3.70;99.90;;;;;;4959451;28;20066;-59
2024/01/03 05:01:32;;;;;;;2.63;0.70;;;3.60;99.90;;;;;;4972594;28;20039;-59
2024/01/03 05:03:58;;;;;;;1.55;1.38;;;3.70;99.90;;;;;;4960177;28;20043;-59
2024/01/03 05:06:25;;;;;;;2.13;1.85;;;3.70;99.90;;;;;;4969558;28;20121;-59
2024/01/03 05:08:52;;;;;;;1.13;0.77;;;3.80;99.90;;;;;;4964210;28;20046;-60
2024/01/03 05:11:19;;;;;;;1.90;1.67;;;3.90;99.90;;;;;;4973301;28;20078;-59
2024/01/03 05:13:46;;;;;;;0.88;0.88;;;3.90;99.90;;;;;;4958933;28;20042;-59
2024/01/03 05:16:13;;;;;;;1.70;1.00;;;3.90;99.90;;;;;;4967473;28;20073;-60
2024/01/03 05:18:40;;;;;;;1.67;0.70;;;3.90;99.90;;;;;;4970677;28;20053;-57
2024/01/03 05:21:07;;;;;;;1.40;0.82;;;3.90;99.90;;;;;;4967168;28;20090;-60
2024/01/03 05:23:33;;;;;;;2.25;1.25;;;4.00;99.90;;;;;;4967799;28;20043;-59
2024/01/03 05:26:00;;;;;;;3.92;0.70;;;4.10;99.90;;;;;;4964274;28;20062;-59
2024/01/03 05:28:27;;;;;;;1.40;0.70;;;4.10;99.90;;;;;;4968657;28;20046;-60
2024/01/03 05:30:54;;;;;;;2.60;1.52;;;4.10;99.90;;;;;;4972815;28;20488;-58
2024/01/03 05:33:21;;;;;;;1.67;1.00;;;4.00;99.90;;;;;;4953715;28;20423;-59
2024/01/03 05:35:48;;;;;;;1.83;0.77;;;4.00;99.90;;;;;;4970335;28;20058;-58
2024/01/03 05:38:15;;;;;;;1.65;0.73;;;4.00;99.90;;;;;;4967218;28;20050;-59
2024/01/03 05:40:42;;;;;;;;;;;4.00;99.90;;;;;;4972679;28;20081;-60
2024/01/03 05:43:11;;;;;;;4.45;0.90;;;4.00;99.90;;;;;;4971962;28;20375;-60
2024/01/03 05:45:37;;;;;;;3.08;0.75;;;4.00;99.90;;;;;;4971559;28;20512;-59
2024/01/03 05:48:04;;;;;;;3.28;1.00;;;4.00;99.90;;;;;;4965457;28;20039;-59
2024/01/03 05:50:32;;;;;;;3.05;1.50;;;4.00;99.90;;;;;;4964871;28;20053;-59
2024/01/03 05:52:58;;;;;;;4.00;1.95;;;4.00;99.90;;;;;;4970641;28;20035;-58
2024/01/03 05:55:26;;;;;;;5.13;1.50;;;4.10;99.90;;;;;;4977734;28;20057;-60
2024/01/03 05:57:53;;;;;;;4.93;1.58;;;4.10;99.90;;;;;;4978110;28;20047;-59
2024/01/03 06:00:21;;;;;;;3.58;1.80;;;4.00;99.90;;;;;;4963871;28;20043;-59
2024/01/03 06:02:47;;;;;;;3.90;2.20;;;3.90;99.90;;;;;;4977011;28;20047;-58
2024/01/03 06:05:16;;;;;;;5.75;3.35;;;4.00;99.90;;;;;;4977930;28;20141;-59
2024/01/03 06:07:46;;;;;;;5.57;2.70;;;4.00;99.90;;;;;;4978853;28;20093;-59
2024/01/03 06:10:13;;;;;;;4.53;2.67;;;4.00;99.90;;;;;;4974825;28;20051;-58
2024/01/03 06:12:40;;;;;;;5.32;3.17;;;4.00;99.90;;;;;;4971208;28;20113;-58
2024/01/03 06:15:07;;;;;;;9.55;3.25;;;4.10;99.90;;;;;;4978826;28;20134;-59
2024/01/03 06:17:34;;;;;;;12.18;5.93;;;4.10;99.90;;;;;;4979098;28;20054;-60
2024/01/03 06:20:01;;;;;;;11.80;5.63;;;4.20;99.90;;;;;;4970250;28;20031;-59
2024/01/03 06:22:28;;;;;;;10.10;5.40;;;4.10;99.90;;;;;;4977853;28;20529;-59
2024/01/03 06:24:55;;;;;;;4.65;3.22;;;4.20;99.90;;;;;;4970406;28;20118;-58
2024/01/03 06:27:21;;;;;;;6.70;3.28;;;4.20;99.90;;;;;;4978849;28;20077;-58
2024/01/03 06:29:48;;;;;;;7.78;3.85;;;4.20;99.90;;;;;;4971636;28;20047;-59
2024/01/03 06:32:15;;;;;;;9.05;4.97;;;4.30;99.90;;;;;;4976807;28;20039;-60
2024/01/03 06:34:42;;;;;;;8.30;4.43;;;4.30;99.90;;;;;;4978631;28;20105;-59
2024/01/03 06:37:09;;;;;;;6.97;4.45;;;4.30;99.90;;;;;;4974765;28;20043;-59
2024/01/03 06:39:36;;;;;;;5.75;3.45;;;4.30;99.90;;;;;;4970008;28;20043;-60
2024/01/03 06:42:03;;;;;;;4.68;3.58;;;4.20;99.90;;;;;;4969122;28;20480;-59
2024/01/03 06:44:30;;;;;;;;;;;4.20;99.90;;;;;;4979009;28;20055;-59
2024/01/03 06:46:57;;;;;;;8.00;3.40;;;4.10;99.90;;;;;;4975848;28;20527;-60
2024/01/03 06:49:23;;;;;;;14.80;6.68;;;4.10;99.90;;;;;;4977287;28;20042;-60
2024/01/03 06:51:50;;;;;;;11.57;3.95;;;3.90;99.90;;;;;;4975055;28;20046;-60
2024/01/03 06:54:17;;;;;;;10.73;4.25;;;3.80;99.90;;;;;;4971574;28;20070;-59
2024/01/03 06:56:44;;;;;;;8.07;3.53;;;3.70;99.90;;;;;;4977457;28;20058;-60
2024/01/03 06:59:11;;;;;;;6.53;3.05;;;3.70;99.90;;;;;;4978479;28;20070;-60
2024/01/03 07:01:37;;;;;;;7.88;2.70;;;3.60;99.90;;;;;;4969817;28;20114;-59
2024/01/03 07:04:04;;;;;;;3.88;2.00;;;3.60;99.90;;;;;;4974160;28;20049;-59
2024/01/03 07:06:31;;;;;;;4.35;2.53;;;3.70;99.90;;;;;;4967264;28;20062;-60
2024/01/03 07:08:58;;;;;;;8.15;3.60;;;3.90;99.90;;;;;;4968677;28;20035;-60
2024/01/03 07:11:25;;;;;;;7.20;4.25;;;3.90;99.90;;;;;;4966359;28;20039;-60
2024/01/03 07:13:52;;;;;;;23.60;10.80;;;3.90;99.90;;;;;;4967039;28;20046;-60
2024/01/03 07:16:19;;;;;;;26.27;11.73;;;3.80;99.90;;;;;;4961143;28;20078;-59
2024/01/03 07:18:46;;;;;;;18.27;8.48;;;3.80;99.90;;;;;;4972554;28;20057;-60
2024/01/03 07:21:13;;;;;;;24.23;9.10;;;3.80;99.90;;;;;;4974711;28;20500;-60
2024/01/03 07:23:40;;;;;;;18.25;8.50;;;3.80;99.90;;;;;;4971645;28;20039;-60
2024/01/03 07:26:07;;;;;;;17.38;5.55;;;3.70;99.90;;;;;;4973542;28;20046;-60
2024/01/03 07:28:33;;;;;;;11.73;6.78;;;3.70;99.90;;;;;;4974829;28;20038;-59
2024/01/03 07:31:00;;;;;;;10.18;4.88;;;3.60;99.90;;;;;;4973027;28;20122;-59
2024/01/03 07:33:27;;;;;;;8.98;3.58;;;3.60;99.90;;;;;;4969970;28;20042;-60
2024/01/03 07:35:54;;;;;;;9.05;4.93;;;3.70;99.90;;;;;;4968303;28;20081;-60
2024/01/03 07:38:21;;;;;;;12.07;5.22;;;3.70;99.90;;;;;;4970694;28;20081;-59
2024/01/03 07:40:48;;;;;;;9.18;4.30;;;3.80;99.90;;;;;;4973046;28;20050;-59
2024/01/03 07:43:15;;;;;;;9.40;4.13;;;3.90;99.90;;;;;;4967583;28;20053;-60
2024/01/03 07:45:42;;;;;;;12.23;4.75;;;4.00;99.90;;;;;;4964645;28;20039;-59
2024/01/03 07:48:09;;;;;;;9.82;3.47;;;4.00;99.90;;;;;;4967029;28;20130;-57
2024/01/03 07:50:36;;;;;;;;;;;3.90;99.90;;;;;;4964995;28;20094;-59
2024/01/03 07:53:03;;;;;;;7.68;2.97;;;3.90;99.90;;;;;;4965202;28;19976;-58
2024/01/03 07:55:29;;;;;;;9.20;3.78;;;3.90;99.90;;;;;;4966531;28;20137;-59
2024/01/03 07:57:56;;;;;;;9.45;3.75;;;3.90;99.90;;;;;;4965488;28;20051;-59
2024/01/03 08:00:23;;;;;;;8.55;3.80;;;3.90;99.90;;;;;;4967209;28;20385;-59
2024/01/03 08:02:50;;;;;;;15.05;5.13;;;4.00;99.90;;;;;;4969457;28;20051;-60
2024/01/03 08:05:17;;;;;;;8.32;4.82;;;4.00;99.90;;;;;;4965193;28;20063;-60
2024/01/03 08:07:44;;;;;;;14.05;4.43;;;4.10;99.90;;;;;;4967014;28;20920;-60
2024/01/03 08:10:11;;;;;;;6.07;3.00;;;4.10;99.90;;;;;;4969360;28;20051;-59
2024/01/03 08:12:37;;;;;;;15.65;5.47;;;4.10;99.90;;;;;;4964303;28;20057;-59
2024/01/03 08:15:05;;;;;;;7.80;4.60;;;4.10;99.90;;;;;;4966575;28;20051;-58
2024/01/03 08:17:32;;;;;;;8.02;4.88;;;4.10;99.90;;;;;;4967422;28;20035;-59
2024/01/03 08:19:59;;;;;;;22.13;8.68;;;4.20;99.90;;;;;;4968037;28;20117;-60
2024/01/03 08:22:26;;;;;;;;;;;4.30;99.90;;;;;;4968462;28;20500;-60
2024/01/03 08:24:53;;;;;;;11.30;5.60;;;4.40;99.90;;;;;;4965942;28;20410;-60
2024/01/03 08:27:20;;;;;;;9.65;5.50;;;4.40;99.90;;;;;;4966414;28;20046;-60
2024/01/03 08:29:47;;;;;;;11.05;5.30;;;4.40;99.90;;;;;;4949574;28;20062;-59
2024/01/03 08:32:15;;;;;;;10.38;6.05;;;4.30;99.90;;;;;;4968403;28;20051;-60
2024/01/03 08:34:45;;;;;;;12.02;6.22;;;4.30;99.90;;;;;;4964934;28;20034;-59
2024/01/03 08:37:12;;;;;;;17.65;10.55;;;4.20;99.90;;;;;;4964957;28;20035;-59
2024/01/03 08:39:39;;;;;;;16.90;9.75;;;4.10;99.90;;;;;;4970599;28;20109;-59
2024/01/03 08:42:06;;;;;;;21.45;13.40;;;4.10;99.90;;;;;;4965327;28;20518;-57
2024/01/03 08:44:33;;;;;;;23.92;15.00;;;4.00;99.90;;;;;;4964067;28;20039;-59
2024/01/03 08:47:00;;;;;;;24.25;13.88;;;3.90;99.90;;;;;;4963635;28;20452;-58
2024/01/03 08:49:26;;;;;;;15.73;9.15;;;4.00;99.90;;;;;;4968477;28;20365;-60
2024/01/03 08:51:55;;;;;;;16.27;9.55;;;4.10;99.90;;;;;;4967615;28;20042;-59
2024/01/03 08:54:24;;;;;;;9.30;5.40;;;4.30;99.90;;;;;;4965227;28;20038;-58
2024/01/03 08:56:51;;;;;;;10.07;5.80;;;4.50;99.90;;;;;;4966607;28;20050;-59
2024/01/03 08:59:18;;;;;;;9.98;5.20;;;4.70;99.90;;;;;;4967650;28;20035;-60
2024/01/03 09:01:45;;;;;;;8.27;5.10;;;4.90;99.90;;;;;;4962916;28;20599;-59
2024/01/03 09:04:11;;;;;;;7.43;4.35;;;5.00;99.90;;;;;;4964751;28;20464;-58
2024/01/03 09:06:39;;;;;;;15.02;7.72;;;5.10;99.90;;;;;;4965466;28;20043;-60
2024/01/03 09:09:06;;;;;;;12.75;7.30;;;5.20;99.90;;;;;;4949185;28;20049;-60
2024/01/03 09:11:33;;;;;;;15.15;6.53;;;5.30;99.90;;;;;;4967429;28;20043;-60
2024/01/03 09:14:00;;;;;;;11.55;6.00;;;5.30;99.90;;;;;;4965589;28;20035;-58
2024/01/03 09:16:26;;;;;;;10.43;4.82;;;5.30;99.90;;;;;;4966687;28;20039;-58
2024/01/03 09:18:54;;;;;;;8.68;5.07;;;5.40;99.90;;;;;;4966140;28;20420;-60
2024/01/03 09:21:21;;;;;;;9.18;4.57;;;5.50;99.90;;;;;;4968170;28;20077;-58
2024/01/03 09:23:50;;;;;;;6.38;4.28;;;5.80;99.90;;;;;;4967610;28;20501;-60
2024/01/03 09:26:20;;;;;;;17.05;8.13;;;6.00;99.90;;;;;;4963449;28;20404;-60
2024/01/03 09:28:47;;;;;;;13.73;6.28;;;6.00;99.90;;;;;;4965897;28;20050;-57
2024/01/03 09:31:15;;;;;;;;;;;6.00;99.90;;;;;;4964367;28;20116;-59
2024/01/03 09:33:42;;;;;;;9.57;4.57;;;5.80;99.90;;;;;;4965541;28;19976;-60
2024/01/03 09:36:21;;;;;;;8.20;5.30;;;5.90;99.90;;;;;;4962472;28;20113;-59
2024/01/03 09:38:54;;;;;;;7.03;4.28;;;5.90;99.90;;;;;;4963611;28;20514;-60
2024/01/03 09:41:22;;;;;;;7.53;3.97;;;5.90;99.90;;;;;;4971356;28;20039;-59
2024/01/03 09:43:52;;;;;;;6.38;3.60;;;6.10;99.90;;;;;;4961217;28;20054;-59
2024/01/03 09:46:20;;;;;;;6.80;3.42;;;6.20;99.90;;;;;;4970895;28;20950;-59
2024/01/03 09:48:48;;;;;;;6.95;3.92;;;6.30;99.90;;;;;;4963696;28;20074;-59
2024/01/03 09:51:16;;;;;;;4.35;3.05;;;6.40;99.90;;;;;;4963681;28;20837;-58
2024/01/03 09:53:44;;;;;;;6.18;3.22;;;6.40;99.90;;;;;;4963781;28;20043;-58
2024/01/03 09:56:11;;;;;;;8.55;3.10;;;6.50;99.90;;;;;;4965364;28;20099;-59
2024/01/03 09:58:38;;;;;;;8.00;2.88;;;6.40;99.90;;;;;;4969849;28;20076;-58
2024/01/03 10:01:05;;;;;;;4.70;2.65;;;6.30;99.90;;;;;;4967212;28;20045;-59
2024/01/03 10:03:32;;;;;;;5.78;3.05;;;6.30;99.90;;;;;;4963905;28;20031;-59
2024/01/03 10:06:06;;;;;;;3.40;2.38;;;6.40;99.90;;;;;;4965476;28;20043;-60
2024/01/03 10:08:35;;;;;;;6.22;2.33;;;6.50;99.90;;;;;;4963071;28;20089;-59
2024/01/03 10:11:19;;;;;;;8.30;3.05;;;6.60;99.90;;;;;;4967684;28;20122;-57
2024/01/03 10:13:47;;;;;;;6.25;2.97;;;6.70;99.90;;;;;;4959368;28;20039;-60
2024/01/03 10:16:27;;;;;;;8.07;2.08;;;6.90;99.90;;;;;;4967309;28;20559;-60
2024/01/03 10:19:14;;;;;;;4.88;2.30;;;7.00;99.90;;;;;;4971506;28;20049;-59
2024/01/03 10:21:48;;;;;;;3.45;2.03;;;7.20;99.90;;;;;;4966773;28;20046;-59
2024/01/03 10:24:16;;;;;;;5.63;2.40;;;7.30;99.90;;;;;;4968893;28;20093;-59
2024/01/03 10:26:45;;;;;;;3.80;2.28;;;7.30;99.90;;;;;;4966780;28;20039;-58
2024/01/03 10:29:14;;;;;;;4.20;2.30;;;7.30;99.90;;;;;;4969887;28;20047;-59
2024/01/03 10:31:41;;;;;;;3.53;2.00;;;7.30;99.90;;;;;;4957973;28;20082;-59
2024/01/03 10:34:17;;;;;;;7.45;1.95;;;7.40;99.90;;;;;;4965828;28;20043;-60
2024/01/03 10:36:45;;;;;;;5.82;2.00;;;7.40;99.90;;;;;;4965925;28;20039;-60
2024/01/03 10:39:17;;;;;;;3.75;1.70;;;7.40;99.90;;;;;;4967760;28;20066;-60
2024/01/03 10:41:46;;;;;;;7.82;2.00;;;7.40;99.90;;;;;;4967546;28;20086;-60
2024/01/03 10:44:15;;;;;;;11.10;1.88;;;7.50;99.90;;;;;;4968637;28;20041;-59
2024/01/03 10:46:46;;;;;;;4.60;1.65;;;7.50;99.90;;;;;;4966655;28;20039;-59
2024/01/03 10:49:13;;;;;;;3.63;1.40;;;7.60;99.90;;;;;;4967352;28;20074;-59
2024/01/03 10:51:43;;;;;;;4.72;1.63;;;7.60;99.90;;;;;;4968952;28;20034;-59
2024/01/03 10:54:17;;;;;;;2.33;1.08;;;7.60;99.90;;;;;;4966374;28;20509;-60
2024/01/03 10:56:52;;;;;;;3.00;1.30;;;7.70;99.90;;;;;;4969778;28;20062;-60
2024/01/03 10:59:29;;;;;;;3.40;1.30;;;7.80;99.90;;;;;;4970649;28;20047;-60
2024/01/03 11:02:37;;;;;;;1.98;1.15;;;7.90;99.90;;;;;;4968872;28;20119;-59
2024/01/03 11:05:22;;;;;;;3.90;1.60;;;7.90;99.90;;;;;;4962172;28;20047;-60
2024/01/03 11:07:59;;;;;;;3.05;1.73;;;8.10;99.90;;;;;;4967912;28;20035;-58
2024/01/03 11:10:49;;;;;;;3.80;2.63;;;8.40;99.90;;;;;;4972642;28;20065;-60
2024/01/03 11:13:32;;;;;;;2.97;1.25;;;8.70;99.90;;;;;;4966998;28;20522;-60
2024/01/03 11:16:00;;;;;;;2.03;1.42;;;8.90;99.90;;;;;;4966226;28;20082;-60
2024/01/03 11:18:42;;;;;;;4.53;2.25;;;9.00;99.90;;;;;;4965770;28;20034;-60
2024/01/03 11:21:26;;;;;;;3.88;2.67;;;9.10;99.90;;;;;;4967875;28;20043;-60
2024/01/03 11:23:53;;;;;;;4.30;1.98;;;9.20;99.90;;;;;;4962583;28;20047;-58
2024/01/03 11:26:52;;;;;;;7.20;2.25;;;9.20;99.90;;;;;;4966520;28;20054;-60
2024/01/03 11:29:35;;;;;;;3.53;1.98;;;9.40;99.90;;;;;;4966980;28;20050;-60
2024/01/03 11:32:06;;;;;;;3.05;1.20;;;9.40;99.90;;;;;;4968535;28;20122;-59
2024/01/03 11:34:40;;;;;;;1.30;1.00;;;9.50;99.90;;;;;;4962564;28;20056;-57
2024/01/03 11:37:27;;;;;;;2.78;1.13;;;9.60;99.90;;;;;;4975008;28;20502;-60
2024/01/03 11:39:55;;;;;;;5.78;1.17;;;9.60;99.90;;;;;;4974127;28;20049;-58
2024/01/03 11:42:33;;;;;;;2.60;1.15;;;9.60;99.90;;;;;;4972926;28;20118;-60
2024/01/03 11:45:09;;;;;;;2.80;1.20;;;9.60;99.90;;;;;;4966693;28;20041;-61
2024/01/03 11:47:40;;;;;;;4.93;1.25;;;9.60;99.90;;;;;;4969725;28;20039;-60
2024/01/03 11:50:09;;;;;;;4.28;1.30;;;9.70;99.90;;;;;;4968728;28;20058;-60
2024/01/03 11:52:42;;;;;;;3.08;1.30;;;9.70;99.90;;;;;;4968052;28;20053;-58
2024/01/03 11:55:16;;;;;;;2.42;1.10;;;9.80;99.90;;;;;;4963272;28;20053;-58
2024/01/03 11:57:45;;;;;;;3.88;1.67;;;9.90;99.90;;;;;;4967811;28;20043;-59
2024/01/03 12:00:13;;;;;;;5.22;1.40;;;10.00;99.90;;;;;;4968087;28;20050;-59
2024/01/03 12:02:50;;;;;;;3.65;1.60;;;10.00;99.90;;;;;;4965952;28;20495;-61
2024/01/03 12:05:17;;;;;;;2.55;1.40;;;10.20;99.90;;;;;;4965317;28;20054;-58
2024/01/03 12:07:44;;;;;;;3.42;1.60;;;10.30;99.90;;;;;;4969182;28;20027;-59
2024/01/03 12:10:15;;;;;;;3.03;1.42;;;10.30;99.90;;;;;;4968123;28;20047;-60
2024/01/03 12:12:43;;;;;;;2.40;1.50;;;10.20;99.90;;;;;;4966403;28;20045;-60
2024/01/03 12:15:28;;;;;;;2.00;1.30;;;10.20;99.90;;;;;;4973953;28;20049;-60
2024/01/03 12:18:05;;;;;;;4.57;1.60;;;10.10;99.90;;;;;;4964461;28;20046;-60
2024/01/03 12:20:33;;;;;;;2.58;1.15;;;10.10;99.90;;;;;;4964003;28;20086;-60
2024/01/03 12:23:07;;;;;;;2.60;1.00;;;10.20;99.90;;;;;;4965629;28;20062;-60
2024/01/03 12:25:34;;;;;;;2.20;1.35;;;10.20;99.90;;;;;;4962038;28;20035;-60
2024/01/03 12:28:01;;;;;;;3.75;1.33;;;10.20;99.90;;;;;;4967371;28;20035;-60
2024/01/03 12:30:29;;;;;;;3.17;1.63;;;10.10;99.90;;;;;;4970804;28;20101;-60
2024/01/03 12:33:08;;;;;;;3.20;1.35;;;10.00;99.90;;;;;;4968637;28;20432;-60
2024/01/03 12:35:36;;;;;;;4.95;2.42;;;9.90;99.90;;;;;;4965903;28;20038;-60
2024/01/03 12:38:04;;;;;;;5.43;2.13;;;9.90;99.90;;;;;;4967560;28;20511;-60
2024/01/03 12:40:31;;;;;;;12.07;6.95;;;9.90;99.90;;;;;;4968661;28;20038;-60
2024/01/03 12:42:58;;;;;;;4.05;2.45;;;9.90;99.90;;;;;;4966919;28;20043;-59
2024/01/03 12:45:25;;;;;;;4.15;1.90;;;9.80;99.90;;;;;;4966649;28;20489;-60
2024/01/03 12:47:52;;;;;;;3.63;1.33;;;9.90;99.90;;;;;;4967321;28;20034;-60
2024/01/03 12:50:19;;;;;;;3.35;1.70;;;9.90;99.90;;;;;;4968259;28;20127;-60
2024/01/03 12:52:45;;;;;;;4.97;1.55;;;10.00;99.90;;;;;;4969096;28;20054;-60
2024/01/03 12:55:14;;;;;;;4.40;1.40;;;10.10;99.90;;;;;;4964480;28;20047;-60
2024/01/03 12:57:41;;;;;;;2.50;1.67;;;10.10;99.90;;;;;;4964188;28;20121;-60
2024/01/03 13:00:10;;;;;;;3.78;1.75;;;10.20;99.90;;;;;;4963691;28;20046;-60
2024/01/03 13:02:37;;;;;;;5.93;2.38;;;10.20;99.90;;;;;;4962277;28;20507;-59
2024/01/03 13:05:04;;;;;;;6.18;2.50;;;10.20;99.90;;;;;;4965029;28;20110;-60